Time;durP1;ratioP1;P1;durP2;ratioP2;P2;SDS_P1;SDS_P2;PMS_P1;PMS_P2;Temp;Humidity;BMP_temperature;BMP_pressure;BME280_temperature;BME280_humidity;BME280_pressure;Samples;Min_cycle;Max_cycle;Signal;HPM_P1;HPM_P2
2024/01/14 00:02:17;;;;;;;48.95;27.75;;;;;;;3.25;73.07;98943.25;5093191;28;20097;-47
2024/01/14 00:04:44;;;;;;;49.22;26.55;;;;;;;3.24;73.03;98931.25;5093167;28;20036;-46
2024/01/14 00:07:10;;;;;;;42.70;23.15;;;;;;;3.19;72.74;98931.66;5092969;28;20016;-47
2024/01/14 00:09:36;;;;;;;49.78;28.52;;;;;;;3.07;72.99;98930.25;5092999;28;20024;-46
2024/01/14 00:12:03;;;;;;;56.55;37.85;;;;;;;3.18;74.06;98937.84;5091784;28;20020;-46
2024/01/14 00:14:28;;;;;;;50.97;30.33;;;;;;;3.53;73.27;98922.44;5092876;28;20485;-47
2024/01/14 00:16:54;;;;;;;45.55;24.60;;;;;;;3.84;70.96;98922.81;5091353;28;20345;-47
2024/01/14 00:19:20;;;;;;;48.03;29.65;;;;;;;3.75;70.80;98915.97;5092866;28;20543;-47
2024/01/14 00:21:46;;;;;;;45.75;28.42;;;;;;;3.52;70.58;98921.63;5092792;28;20038;-47
2024/01/14 00:24:11;;;;;;;49.72;29.58;;;;;;;3.22;71.01;98921.97;5091494;28;20107;-47
2024/01/14 00:26:37;;;;;;;48.92;30.67;;;;;;;2.97;71.04;98914.75;5091382;28;20057;-47
2024/01/14 00:29:03;;;;;;;46.63;26.33;;;;;;;2.97;72.74;98906.97;5092657;28;20027;-47
2024/01/14 00:31:29;;;;;;;48.80;33.22;;;;;;;3.33;74.10;98906.19;5091347;28;20089;-47
2024/01/14 00:33:55;;;;;;;47.92;27.02;;;;;;;3.72;75.03;98901.50;5092439;28;20019;-47
2024/01/14 00:36:20;;;;;;;43.80;28.25;;;;;;;3.98;72.73;98900.69;5074376;28;20046;-47
2024/01/14 00:38:46;;;;;;;48.05;34.05;;;;;;;3.90;70.70;98895.44;5091269;28;20027;-47
2024/01/14 00:41:12;;;;;;;50.08;32.47;;;;;;;3.76;69.82;98886.41;5092392;28;20024;-47
2024/01/14 00:43:38;;;;;;;50.78;30.98;;;;;;;3.35;70.04;98896.50;5092754;28;20054;-47
2024/01/14 00:46:04;;;;;;;49.90;28.77;;;;;;;3.07;70.82;98886.19;5091057;28;20032;-46
2024/01/14 00:48:30;;;;;;;49.47;27.75;;;;;;;3.14;73.02;98883.81;5091122;28;20056;-46
2024/01/14 00:50:56;;;;;;;48.80;25.15;;;;;;;3.35;74.11;98876.53;5092259;28;20051;-47
2024/01/14 00:53:22;;;;;;;54.58;32.92;;;;;;;3.32;74.00;98869.06;5090917;28;20020;-47
2024/01/14 00:55:48;;;;;;;79.07;66.97;;;;;;;3.28;73.54;98867.75;5091019;28;20375;-47
2024/01/14 00:58:15;;;;;;;82.63;69.10;;;;;;;3.23;72.24;98869.97;5074131;28;20020;-47
2024/01/14 01:00:40;;;;;;;80.90;69.93;;;;;;;3.16;71.56;98866.34;5091728;28;20031;-46
2024/01/14 01:03:06;;;;;;;108.40;78.53;;;;;;;2.85;72.22;98864.09;5092204;28;20035;-46
2024/01/14 01:05:32;;;;;;;56.80;31.80;;;;;;;2.71;72.86;98864.59;5092131;28;20035;-46
2024/01/14 01:07:58;;;;;;;47.38;26.30;;;;;;;2.79;74.03;98856.88;5090795;28;20020;-47
2024/01/14 01:10:24;;;;;;;69.07;37.22;;;;;;;2.98;74.96;98854.19;5092069;28;20027;-46
2024/01/14 01:12:50;;;;;;;76.10;58.50;;;;;;;3.27;73.79;98853.13;5090760;28;20036;-47
2024/01/14 01:15:16;;;;;;;48.78;28.50;;;;;;;3.12;73.31;98860.63;5091537;28;20086;-47
2024/01/14 01:17:41;;;;;;;49.38;27.13;;;;;;;3.25;72.40;98856.84;5092033;28;20016;-47
2024/01/14 01:20:08;;;;;;;49.95;30.40;;;;;;;3.36;73.45;98857.44;5092154;28;20074;-47
2024/01/14 01:22:34;;;;;;;39.90;23.23;;;;;;;3.42;72.58;98856.03;5091001;28;20569;-47
2024/01/14 01:25:00;;;;;;;46.92;25.92;;;;;;;3.36;70.22;98851.41;5090543;28;20097;-47
2024/01/14 01:27:27;;;;;;;41.90;24.02;;;;;;;3.11;71.25;98856.41;5090863;28;20024;-47
2024/01/14 01:29:53;;;;;;;45.75;23.55;;;;;;;2.91;72.40;98866.09;5091871;28;20502;-47
2024/01/14 01:32:18;;;;;;;42.90;22.85;;;;;;;2.88;72.32;98857.78;5091761;28;20017;-46
2024/01/14 01:34:45;;;;;;;54.13;33.08;;;;;;;2.71;72.64;98854.22;5091741;28;20398;-47
2024/01/14 01:37:13;;;;;;;48.13;28.25;;;;;;;2.73;73.81;98855.69;5091716;28;20056;-47
2024/01/14 01:39:39;;;;;;;47.63;29.30;;;;;;;2.78;74.35;98847.50;5092007;28;20058;-47
2024/01/14 01:42:05;;;;;;;49.65;28.30;;;;;;;2.76;74.55;98839.88;5091693;28;20051;-46
2024/01/14 01:44:31;;;;;;;43.65;29.27;;;;;;;2.93;75.11;98843.44;5091722;28;20032;-47
2024/01/14 01:46:57;;;;;;;42.45;26.88;;;;;;;2.99;73.27;98840.25;5091673;28;20099;-47
2024/01/14 01:49:23;;;;;;;41.88;26.83;;;;;;;2.86;72.71;98833.78;5091678;28;20505;-47
2024/01/14 01:51:53;;;;;;;43.80;27.73;;;;;;;2.60;73.08;98840.50;5073540;28;20484;-46
2024/01/14 01:54:26;;;;;;;39.20;22.35;;;;;;;2.39;72.93;98834.75;5091573;28;20396;-46
2024/01/14 01:56:52;;;;;;;46.35;24.10;;;;;;;2.43;74.57;98832.69;5091628;28;20024;-47
2024/01/14 01:59:19;;;;;;;47.47;31.50;;;;;;;2.39;74.07;98822.66;5090247;28;20397;-47
2024/01/14 02:01:46;;;;;;;47.25;31.85;;;;;;;2.30;73.86;98822.69;5091580;28;20031;-46
2024/01/14 02:04:14;;;;;;;39.35;24.25;;;;;;;2.31;75.18;98822.53;5091404;28;20085;-46
2024/01/14 02:06:41;;;;;;;67.55;41.00;;;;;;;2.53;76.43;98813.53;5090150;28;20844;-47
2024/01/14 02:09:10;;;;;;;59.28;33.58;;;;;;;2.74;77.85;98812.47;5090096;28;20515;-47
2024/01/14 02:11:37;;;;;;;62.55;27.50;;;;;;;2.78;76.37;98803.44;5090123;28;20027;-47
2024/01/14 02:14:04;;;;;;;49.53;30.55;;;;;;;2.88;76.12;98801.59;5093423;28;20102;-47
2024/01/14 02:16:30;;;;;;;61.40;34.35;;;;;;;2.98;76.60;98806.72;5094923;28;20429;-47
2024/01/14 02:18:55;;;;;;;52.40;32.75;;;;;;;3.06;74.81;98798.16;5095489;28;20043;-47
2024/01/14 02:21:31;;;;;;;44.25;25.88;;;;;;;2.92;74.90;98808.13;5095205;28;20027;-47
2024/01/14 02:24:08;;;;;;;39.60;23.20;;;;;;;3.01;74.87;98796.03;5095201;28;20047;-47
2024/01/14 02:26:34;;;;;;;158.15;103.53;;;;;;;3.11;73.43;98788.16;5095172;28;20412;-47
2024/01/14 02:29:03;;;;;;;62.78;39.25;;;;;;;3.12;73.07;98792.38;5076812;28;20028;-47
2024/01/14 02:31:29;;;;;;;41.08;24.50;;;;;;;3.03;73.05;98788.09;5094080;28;20028;-47
2024/01/14 02:33:55;;;;;;;53.47;29.02;;;;;;;3.11;75.08;98778.59;5095237;28;20052;-47
2024/01/14 02:36:21;;;;;;;81.05;51.05;;;;;;;3.43;74.86;98777.22;5093507;28;20128;-47
2024/01/14 02:38:47;;;;;;;50.85;29.15;;;;;;;3.37;72.91;98783.81;5094946;28;20020;-47
2024/01/14 02:41:12;;;;;;;47.08;26.92;;;;;;;3.28;74.01;98782.16;5094779;28;20047;-47
2024/01/14 02:43:38;;;;;;;52.10;32.10;;;;;;;3.34;74.99;98786.75;5094769;28;20047;-47
2024/01/14 02:46:04;;;;;;;87.22;48.38;;;;;;;3.21;73.74;98775.94;5094631;28;20027;-47
2024/01/14 02:48:30;;;;;;;71.82;37.35;;;;;;;3.17;75.79;98780.59;5094639;28;20453;-47
2024/01/14 02:50:56;;;;;;;49.05;29.40;;;;;;;3.29;75.96;98776.00;5094651;28;20054;-46
2024/01/14 02:53:21;;;;;;;39.53;22.42;;;;;;;3.38;74.86;98769.91;5093275;28;20456;-47
2024/01/14 02:55:47;;;;;;;90.93;50.97;;;;;;;3.31;73.70;98768.88;5094427;28;20073;-47
2024/01/14 02:58:16;;;;;;;101.97;58.30;;;;;;;3.26;72.97;98771.13;5094479;28;20162;-47
2024/01/14 03:00:42;;;;;;;55.60;32.22;;;;;;;3.00;72.47;98763.31;5094467;28;20034;-47
2024/01/14 03:03:07;;;;;;;50.15;31.58;;;;;;;2.80;74.08;98758.28;5093065;28;20461;-47
2024/01/14 03:05:33;;;;;;;53.90;32.13;;;;;;;2.73;73.76;98762.41;5092981;28;20093;-46
2024/01/14 03:07:59;;;;;;;49.58;31.25;;;;;;;2.68;73.64;98750.88;5093249;28;20028;-46
2024/01/14 03:10:24;;;;;;;51.10;30.23;;;;;;;2.48;74.33;98739.84;5094238;28;20117;-47
2024/01/14 03:12:50;;;;;;;44.80;27.90;;;;;;;2.40;75.04;98737.97;5094223;28;20031;-46
2024/01/14 03:15:16;;;;;;;54.25;31.77;;;;;;;2.35;75.08;98741.00;5093678;28;20398;-47
2024/01/14 03:17:41;;;;;;;44.50;28.35;;;;;;;2.34;74.91;98741.97;5094121;28;20085;-46
2024/01/14 03:20:08;;;;;;;45.35;24.35;;;;;;;2.32;75.28;98733.53;5094058;28;20016;-46
2024/01/14 03:22:33;;;;;;;43.63;28.02;;;;;;;2.35;76.17;98714.28;5094097;28;20024;-47
2024/01/14 03:24:59;;;;;;;41.30;29.08;;;;;;;2.38;75.47;98708.81;5093524;28;20124;-47
2024/01/14 03:27:25;;;;;;;55.13;28.85;;;;;;;2.36;76.05;98706.38;5093879;28;20016;-47
2024/01/14 03:29:51;;;;;;;51.97;24.35;;;;;;;2.38;76.02;98701.84;5093871;28;20111;-47
2024/01/14 03:32:16;;;;;;;146.43;68.30;;;;;;;2.65;77.44;98710.50;5093766;28;20454;-47
2024/01/14 03:34:42;;;;;;;42.85;24.02;;;;;;;2.76;76.14;98710.28;5092374;28;20119;-47
2024/01/14 03:37:08;;;;;;;47.70;31.08;;;;;;;2.70;75.84;98718.66;5092353;28;20478;-46
2024/01/14 03:39:34;;;;;;;44.05;23.65;;;;;;;2.53;75.11;98728.06;5093651;28;20027;-46
2024/01/14 03:41:59;;;;;;;1230.22;559.20;;;;;;;2.60;77.06;98723.91;5093609;28;20020;-47
2024/01/14 03:44:25;;;;;;;64.13;31.75;;;;;;;2.81;76.56;98727.97;5093533;28;20034;-47
2024/01/14 03:46:51;;;;;;;46.33;28.25;;;;;;;2.81;76.31;98735.75;5093584;28;20056;-47
2024/01/14 03:49:17;;;;;;;69.68;32.65;;;;;;;2.62;75.67;98741.09;5092148;28;20024;-47
2024/01/14 03:51:42;;;;;;;48.47;30.55;;;;;;;2.60;75.63;98736.88;5093449;28;20178;-47
2024/01/14 03:54:08;;;;;;;81.28;31.85;;;;;;;2.50;75.89;98730.16;5091951;28;20061;-47
2024/01/14 03:56:34;;;;;;;40.17;24.10;;;;;;;2.55;76.79;98731.31;5092014;28;20036;-47
2024/01/14 03:59:00;;;;;;;40.47;24.50;;;;;;;2.57;75.74;98736.34;5093317;28;20112;-47
2024/01/14 04:01:27;;;;;;;62.22;30.42;;;;;;;2.53;77.09;98724.66;5091937;28;20108;-47
2024/01/14 04:03:53;;;;;;;61.15;27.55;;;;;;;2.64;78.29;98708.91;5091890;28;20030;-47
2024/01/14 04:06:20;;;;;;;40.47;20.27;;;;;;;2.97;78.50;98730.69;5093133;28;20106;-46
2024/01/14 04:08:46;;;;;;;43.95;25.88;;;;;;;3.23;77.75;98731.69;5093058;28;20024;-47
2024/01/14 04:11:12;;;;;;;44.60;25.58;;;;;;;3.23;76.68;98718.72;5091703;28;20059;-47
2024/01/14 04:13:38;;;;;;;47.15;26.65;;;;;;;3.22;76.56;98722.28;5091620;28;20110;-47
2024/01/14 04:16:04;;;;;;;42.85;23.92;;;;;;;3.12;74.91;98728.41;5092679;28;20162;-47
2024/01/14 04:18:30;;;;;;;50.05;23.13;;;;;;;2.93;75.11;98719.00;5091648;28;20024;-47
2024/01/14 04:20:56;;;;;;;40.20;21.20;;;;;;;2.75;75.27;98719.00;5092889;28;20024;-47
2024/01/14 04:23:22;;;;;;;42.65;27.75;;;;;;;2.71;74.83;98720.28;5091530;28;20039;-47
2024/01/14 04:25:48;;;;;;;42.15;27.42;;;;;;;2.58;75.35;98709.50;5091494;28;20493;-46
2024/01/14 04:28:13;;;;;;;48.08;24.77;;;;;;;2.69;75.20;98711.84;5091430;28;20024;-46
2024/01/14 04:30:39;;;;;;;42.65;20.33;;;;;;;2.81;75.78;98709.84;5092734;28;20038;-47
2024/01/14 04:33:05;;;;;;;34.05;16.30;;;;;;;2.98;74.77;98695.25;5092663;28;20498;-47
2024/01/14 04:35:31;;;;;;;39.50;19.67;;;;;;;3.00;74.70;98670.78;5091749;28;20024;-47
2024/01/14 04:37:57;;;;;;;43.90;22.50;;;;;;;3.29;74.89;98664.47;5091280;28;20458;-47
2024/01/14 04:40:23;;;;;;;52.47;31.67;;;;;;;3.44;73.22;98653.50;5092461;28;20019;-47
2024/01/14 04:42:48;;;;;;;48.97;27.40;;;;;;;3.30;72.93;98655.72;5091189;28;20486;-47
2024/01/14 04:45:14;;;;;;;48.05;29.20;;;;;;;3.14;72.98;98653.03;5091149;28;20028;-47
2024/01/14 04:47:40;;;;;;;47.20;28.95;;;;;;;2.87;72.96;98639.25;5092415;28;20570;-47
2024/01/14 04:50:06;;;;;;;45.92;27.63;;;;;;;2.67;73.56;98641.22;5092348;28;20027;-46
2024/01/14 04:52:31;;;;;;;51.65;29.25;;;;;;;2.56;74.41;98644.88;5092385;28;20117;-46
2024/01/14 04:54:57;;;;;;;51.58;38.33;;;;;;;2.47;75.11;98657.91;5092225;28;20073;-47
2024/01/14 04:57:23;;;;;;;52.35;34.38;;;;;;;2.54;75.24;98664.13;5092226;28;20375;-47
2024/01/14 04:59:49;;;;;;;115.07;49.50;;;;;;;2.65;76.13;98658.69;5092254;28;20020;-47
2024/01/14 05:02:14;;;;;;;162.35;65.30;;;;;;;2.81;76.52;98645.03;5092121;28;20031;-47
2024/01/14 05:04:40;;;;;;;52.60;31.88;;;;;;;2.75;74.96;98646.47;5090849;28;20024;-47
2024/01/14 05:07:06;;;;;;;43.05;27.65;;;;;;;2.74;74.87;98638.84;5092052;28;20107;-47
2024/01/14 05:09:32;;;;;;;45.28;26.98;;;;;;;2.56;74.34;98644.06;5092131;28;20013;-46
2024/01/14 05:11:57;;;;;;;97.70;41.13;;;;;;;2.54;75.69;98649.38;5092069;28;20024;-47
2024/01/14 05:14:23;;;;;;;47.90;28.58;;;;;;;2.61;75.24;98647.00;5090583;28;20028;-46
2024/01/14 05:16:49;;;;;;;221.68;79.25;;;;;;;2.58;75.13;98661.09;5090391;28;20456;-47
2024/01/14 05:19:14;;;;;;;48.72;21.98;;;;;;;2.83;74.76;98682.00;5091983;28;20028;-47
2024/01/14 05:21:40;;;;;;;43.97;24.42;;;;;;;2.76;74.57;98697.34;5091941;28;20032;-47
2024/01/14 05:24:06;;;;;;;60.33;28.83;;;;;;;2.76;75.13;98712.09;5090610;28;20028;-47
2024/01/14 05:26:32;;;;;;;48.28;26.27;;;;;;;2.96;75.86;98723.09;5090530;28;20394;-47
2024/01/14 05:28:59;;;;;;;46.40;24.80;;;;;;;3.19;76.05;98734.59;5091820;28;20478;-47
2024/01/14 05:31:26;;;;;;;44.25;24.00;;;;;;;3.45;74.83;98743.34;5091789;28;20024;-47
2024/01/14 05:33:53;;;;;;;48.13;25.92;;;;;;;3.44;74.33;98739.13;5091992;28;20386;-47
2024/01/14 05:36:18;;;;;;;117.05;89.57;;;;;;;3.46;74.32;98729.41;5090371;28;20070;-47
2024/01/14 05:38:44;;;;;;;116.60;48.60;;;;;;;3.45;73.64;98720.00;5090464;28;20087;-47
2024/01/14 05:41:13;;;;;;;53.58;29.20;;;;;;;3.32;73.09;98731.59;5090447;28;20028;-47
2024/01/14 05:43:39;;;;;;;70.78;32.83;;;;;;;3.28;73.09;98722.50;5091776;28;20027;-46
2024/01/14 05:46:04;;;;;;;57.25;29.60;;;;;;;3.31;73.32;98727.38;5090623;28;20028;-46
2024/01/14 05:48:30;;;;;;;43.45;24.25;;;;;;;3.23;72.93;98708.34;5094586;28;20494;-47
2024/01/14 05:50:56;;;;;;;42.90;20.88;;;;;;;3.18;72.57;98701.03;5094556;28;20024;-47
2024/01/14 05:53:22;;;;;;;54.58;23.70;;;;;;;3.06;71.89;98697.88;5095785;28;20031;-47
2024/01/14 05:55:47;;;;;;;52.65;24.33;;;;;;;2.88;72.36;98678.94;5095600;28;20085;-47
2024/01/14 05:58:13;;;;;;;102.15;42.60;;;;;;;2.95;74.58;98659.22;5094297;28;20162;-47
2024/01/14 06:00:39;;;;;;;70.15;28.63;;;;;;;3.18;74.48;98646.59;5094250;28;20017;-46
2024/01/14 06:03:05;;;;;;;43.40;25.58;;;;;;;3.32;72.47;98632.22;5094400;28;20035;-47
2024/01/14 06:05:30;;;;;;;42.20;27.17;;;;;;;2.94;72.52;98635.09;5077344;28;20523;-47
2024/01/14 06:07:56;;;;;;;40.25;25.60;;;;;;;2.85;73.23;98638.59;5094277;28;20020;-46
2024/01/14 06:10:22;;;;;;;43.45;24.38;;;;;;;2.85;73.64;98633.41;5095491;28;20024;-47
2024/01/14 06:12:47;;;;;;;43.92;25.67;;;;;;;2.81;73.25;98632.09;5095413;28;20052;-47
2024/01/14 06:15:13;;;;;;;40.50;24.85;;;;;;;2.77;73.95;98631.56;5095045;28;20104;-47
2024/01/14 06:17:39;;;;;;;39.40;24.92;;;;;;;2.64;73.29;98635.56;5094247;28;20032;-46
2024/01/14 06:20:07;;;;;;;47.75;23.73;;;;;;;2.59;74.02;98633.38;5093874;28;20486;-47
2024/01/14 06:22:32;;;;;;;162.18;28.92;;;;;;;2.80;75.27;98635.66;5093859;28;20020;-47
2024/01/14 06:24:58;;;;;;;37.85;23.55;;;;;;;3.01;74.20;98653.44;5095186;28;20077;-46
2024/01/14 06:27:26;;;;;;;39.70;23.65;;;;;;;2.85;72.21;98666.28;5093753;28;20551;-47
2024/01/14 06:29:51;;;;;;;45.95;25.65;;;;;;;2.72;72.64;98684.84;5093819;28;20031;-46
2024/01/14 06:32:17;;;;;;;37.28;22.25;;;;;;;2.69;73.17;98688.53;5093705;28;20024;-47
2024/01/14 06:34:43;;;;;;;38.60;22.40;;;;;;;2.58;73.05;98688.78;5094886;28;20111;-47
2024/01/14 06:37:08;;;;;;;36.10;21.00;;;;;;;2.43;72.97;98704.00;5093606;28;20027;-44
2024/01/14 06:39:34;;;;;;;39.42;23.00;;;;;;;2.32;73.73;98709.41;5093605;28;20028;-44
2024/01/14 06:42:00;;;;;;;40.65;24.75;;;;;;;2.22;74.00;98704.28;5094832;28;20493;-44
2024/01/14 06:44:26;;;;;;;36.38;21.42;;;;;;;2.23;74.88;98695.56;5094773;28;20107;-45
2024/01/14 06:46:52;;;;;;;43.00;22.88;;;;;;;2.29;74.36;98679.44;5094754;28;20108;-44
2024/01/14 06:49:18;;;;;;;42.15;19.98;;;;;;;2.42;74.50;98679.06;5093361;28;20482;-44
2024/01/14 06:51:45;;;;;;;34.05;20.33;;;;;;;2.48;73.69;98673.31;5093348;28;20451;-44
2024/01/14 06:54:11;;;;;;;42.55;24.75;;;;;;;2.39;73.39;98667.25;5094506;28;20105;-45
2024/01/14 06:56:47;;;;;;;38.97;24.38;;;;;;;2.35;73.79;98665.88;5093351;28;20070;-45
2024/01/14 06:59:18;;;;;;;;;;;;;;;2.31;74.24;98656.78;5092753;28;20085;-44
2024/01/14 07:01:47;;;;;;;105.97;44.50;;;;;;;2.65;75.67;98660.47;5094355;28;19912;-45
2024/01/14 07:04:14;;;;;;;36.45;23.58;;;;;;;2.75;73.70;98658.59;5076143;28;20028;-44
2024/01/14 07:06:40;;;;;;;96.57;38.95;;;;;;;2.80;74.46;98643.44;5093055;28;20024;-44
2024/01/14 07:09:10;;;;;;;38.13;23.83;;;;;;;2.84;72.64;98626.63;5094320;28;20041;-45
2024/01/14 07:11:36;;;;;;;37.30;24.55;;;;;;;2.63;72.43;98637.31;5092967;28;20062;-45
2024/01/14 07:14:02;;;;;;;40.92;20.13;;;;;;;2.58;73.66;98642.94;5092950;28;20056;-44
2024/01/14 07:16:29;;;;;;;40.70;19.77;;;;;;;2.77;73.84;98657.47;5092622;28;20510;-45
2024/01/14 07:18:55;;;;;;;41.22;19.75;;;;;;;2.75;72.75;98682.75;5094421;28;20385;-44
2024/01/14 07:21:23;;;;;;;38.78;20.35;;;;;;;2.60;73.20;98689.44;5092691;28;20032;-45
2024/01/14 07:23:49;;;;;;;39.88;23.38;;;;;;;2.58;73.65;98697.34;5092686;28;20110;-45
2024/01/14 07:26:17;;;;;;;47.38;28.17;;;;;;;2.57;74.02;98692.31;5092686;28;20028;-45
2024/01/14 07:28:44;;;;;;;36.63;19.30;;;;;;;2.67;74.21;98687.84;5093937;28;20100;-45
2024/01/14 07:31:10;;;;;;;36.67;20.90;;;;;;;2.60;72.97;98692.03;5093831;28;20020;-44
2024/01/14 07:33:36;;;;;;;50.83;31.83;;;;;;;2.57;73.64;98692.31;5093793;28;20559;-44
2024/01/14 07:36:03;;;;;;;39.83;23.00;;;;;;;2.69;73.73;98679.94;5093696;28;20024;-45
2024/01/14 07:38:29;;;;;;;39.70;20.98;;;;;;;2.79;73.24;98686.66;5093801;28;20031;-44
2024/01/14 07:40:55;;;;;;;41.90;23.40;;;;;;;2.75;72.34;98695.69;5093919;28;20031;-45
2024/01/14 07:43:24;;;;;;;33.63;18.02;;;;;;;2.66;72.53;98690.63;5092253;28;20571;-44
2024/01/14 07:45:50;;;;;;;86.90;48.60;;;;;;;2.57;72.57;98676.75;5093619;28;20024;-45
2024/01/14 07:48:16;;;;;;;81.47;43.38;;;;;;;2.61;74.60;98667.72;5075368;28;20078;-45
2024/01/14 07:50:41;;;;;;;46.92;25.65;;;;;;;2.70;72.66;98655.69;5092175;28;20490;-44
2024/01/14 07:53:09;;;;;;;39.20;24.85;;;;;;;2.38;72.26;98654.44;5093466;28;20108;-45
2024/01/14 07:55:35;;;;;;;35.95;23.75;;;;;;;2.13;73.28;98655.97;5093255;28;20025;-45
2024/01/14 07:58:01;;;;;;;34.90;23.58;;;;;;;2.15;75.21;98654.88;5093298;28;20043;-45
2024/01/14 08:00:26;;;;;;;40.97;24.70;;;;;;;2.31;74.94;98643.84;5093336;28;20043;-45
2024/01/14 08:02:52;;;;;;;40.85;24.23;;;;;;;2.48;74.76;98637.03;5093254;28;20028;-45
2024/01/14 08:05:19;;;;;;;40.10;25.25;;;;;;;2.81;73.99;98629.50;5093230;28;20020;-45
2024/01/14 08:07:45;;;;;;;40.72;25.90;;;;;;;2.79;72.45;98631.44;5093218;28;20051;-45
2024/01/14 08:10:11;;;;;;;34.78;19.58;;;;;;;2.75;73.35;98632.69;5093082;28;20051;-44
2024/01/14 08:12:37;;;;;;;32.83;19.17;;;;;;;2.89;73.02;98645.09;5108731;28;20024;-45
2024/01/14 08:15:03;;;;;;;39.33;22.85;;;;;;;2.84;72.42;98652.53;5092968;28;20033;-45
2024/01/14 08:17:28;;;;;;;38.08;21.02;;;;;;;2.71;73.45;98647.72;5091318;28;20055;-45
2024/01/14 08:19:54;;;;;;;38.53;22.38;;;;;;;2.66;72.89;98654.34;5091594;28;20092;-44
2024/01/14 08:22:20;;;;;;;37.95;22.85;;;;;;;2.68;73.32;98650.63;5091582;28;20371;-45
2024/01/14 08:24:45;;;;;;;35.75;20.98;;;;;;;2.58;72.25;98657.69;5091556;28;20405;-45
2024/01/14 08:27:11;;;;;;;41.05;20.73;;;;;;;2.71;74.32;98646.91;5092770;28;20066;-44
2024/01/14 08:29:37;;;;;;;42.65;22.92;;;;;;;2.81;72.90;98647.63;5091462;28;20031;-45
2024/01/14 08:32:02;;;;;;;36.13;21.30;;;;;;;2.65;72.56;98644.94;5091366;28;20093;-47
2024/01/14 08:34:29;;;;;;;39.95;19.35;;;;;;;2.68;74.22;98648.03;5092530;28;20028;-47
2024/01/14 08:36:55;;;;;;;35.53;19.08;;;;;;;2.92;74.11;98652.59;5091277;28;20023;-47
2024/01/14 08:39:21;;;;;;;60.88;20.50;;;;;;;3.26;74.59;98653.56;5092517;28;20028;-47
2024/01/14 08:41:46;;;;;;;38.25;20.55;;;;;;;3.66;74.05;98631.38;5092560;28;20030;-46
2024/01/14 08:44:14;;;;;;;31.30;17.23;;;;;;;3.97;73.08;98618.66;5092475;28;20493;-47
2024/01/14 08:46:47;;;;;;;34.65;19.27;;;;;;;4.00;71.69;98613.13;5092405;28;20105;-47
2024/01/14 08:49:12;;;;;;;33.10;19.10;;;;;;;4.07;70.67;98613.31;5092463;28;20028;-47
2024/01/14 08:51:39;;;;;;;31.13;17.60;;;;;;;4.08;68.59;98622.72;5092360;28;20020;-47
2024/01/14 08:54:06;;;;;;;33.75;20.08;;;;;;;4.13;69.15;98631.66;5090891;28;20047;-47
2024/01/14 08:56:32;;;;;;;42.03;26.02;;;;;;;4.17;69.06;98634.75;5091200;28;20035;-47
2024/01/14 08:58:58;;;;;;;37.85;23.73;;;;;;;4.08;68.99;98633.91;5092228;28;20028;-47
2024/01/14 09:01:24;;;;;;;34.47;18.67;;;;;;;4.03;68.05;98641.38;5092176;28;20024;-47
2024/01/14 09:03:50;;;;;;;32.20;18.77;;;;;;;3.98;67.81;98635.84;5092246;28;20523;-47
2024/01/14 09:06:16;;;;;;;33.75;22.08;;;;;;;4.05;68.42;98621.25;5090760;28;20020;-47
2024/01/14 09:08:42;;;;;;;36.15;19.33;;;;;;;4.12;67.40;98629.22;5092138;28;20098;-47
2024/01/14 09:11:09;;;;;;;31.75;18.88;;;;;;;4.07;68.35;98618.50;5091948;28;20032;-47
2024/01/14 09:13:35;;;;;;;30.88;17.27;;;;;;;4.43;69.27;98592.22;5092097;28;20401;-47
2024/01/14 09:16:01;;;;;;;31.25;21.63;;;;;;;4.84;66.47;98594.78;5090320;28;20051;-47
2024/01/14 09:18:28;;;;;;;29.50;20.98;;;;;;;4.55;65.90;98586.53;5092064;28;20512;-47
2024/01/14 09:20:53;;;;;;;27.58;18.65;;;;;;;4.37;66.87;98578.09;5090228;28;20028;-47
2024/01/14 09:23:19;;;;;;;30.30;21.65;;;;;;;4.17;66.84;98568.03;5090609;28;20396;-47
2024/01/14 09:25:45;;;;;;;27.48;18.58;;;;;;;4.06;66.95;98578.72;5090559;28;20081;-47
2024/01/14 09:28:11;;;;;;;27.38;16.27;;;;;;;4.21;68.21;98547.75;5090502;28;20032;-47
2024/01/14 09:30:38;;;;;;;35.85;21.95;;;;;;;4.51;67.04;98553.25;5091809;28;20047;-47
2024/01/14 09:33:04;;;;;;;35.40;22.20;;;;;;;4.66;66.63;98541.19;5091855;28;20035;-47
2024/01/14 09:35:30;;;;;;;33.35;22.55;;;;;;;4.65;67.55;98541.34;5090397;28;20122;-47
2024/01/14 09:37:55;;;;;;;35.95;18.77;;;;;;;4.56;69.32;98543.16;5090506;28;20103;-47
2024/01/14 09:40:21;;;;;;;34.95;21.65;;;;;;;4.64;70.25;98540.53;5090391;28;20085;-47
2024/01/14 09:42:51;;;;;;;35.80;21.30;;;;;;;4.59;69.61;98546.25;5090463;28;20364;-47
2024/01/14 09:45:17;;;;;;;36.35;20.83;;;;;;;4.74;68.77;98553.34;5091738;28;20047;-47
2024/01/14 09:47:44;;;;;;;31.58;21.60;;;;;;;5.04;68.50;98549.22;5090371;28;20490;-46
2024/01/14 09:50:13;;;;;;;39.22;21.75;;;;;;;5.14;65.56;98562.81;5091695;28;20103;-47
2024/01/14 09:52:41;;;;;;;37.05;21.30;;;;;;;4.80;66.69;98556.09;5091757;28;20035;-47
2024/01/14 09:55:10;;;;;;;37.30;23.00;;;;;;;4.54;65.99;98530.31;5091853;28;20024;-47
2024/01/14 09:57:39;;;;;;;37.55;23.48;;;;;;;4.30;66.43;98533.75;5091709;28;20555;-47
2024/01/14 10:00:06;;;;;;;35.85;22.38;;;;;;;4.53;67.63;98544.31;5090275;28;20028;-47
2024/01/14 10:02:35;;;;;;;33.20;21.63;;;;;;;4.80;65.94;98552.69;5091511;28;20435;-47
2024/01/14 10:05:01;;;;;;;35.67;19.63;;;;;;;4.84;66.00;98551.38;5090212;28;20043;-47
2024/01/14 10:07:27;;;;;;;33.08;18.30;;;;;;;4.87;65.18;98558.03;5091512;28;20016;-47
2024/01/14 10:09:53;;;;;;;29.63;17.42;;;;;;;4.88;65.36;98557.06;5090234;28;20370;-45
2024/01/14 10:12:19;;;;;;;33.15;20.40;;;;;;;4.97;65.46;98543.03;5090138;28;20123;-45
2024/01/14 10:14:55;;;;;;;33.28;19.05;;;;;;;5.02;64.38;98539.97;5091328;28;20111;-45
2024/01/14 10:17:21;;;;;;;30.05;16.20;;;;;;;4.89;64.71;98530.91;5091291;28;20544;-45
2024/01/14 10:19:52;;;;;;;30.52;17.30;;;;;;;4.79;64.73;98519.88;5090100;28;20024;-45
2024/01/14 10:22:18;;;;;;;32.47;18.88;;;;;;;4.83;65.13;98528.13;5091456;28;20028;-45
2024/01/14 10:24:54;;;;;;;39.92;29.63;;;;;;;4.95;66.07;98534.59;5090039;28;20024;-45
2024/01/14 10:27:23;;;;;;;75.97;61.88;;;;;;;5.26;65.97;98531.25;5073232;28;20538;-45
2024/01/14 10:29:52;;;;;;;60.35;40.28;;;;;;;5.51;66.16;98526.72;5091339;28;20032;-46
2024/01/14 10:32:19;;;;;;;43.88;25.77;;;;;;;5.58;64.59;98530.25;5091332;28;20039;-46
2024/01/14 10:34:46;;;;;;;31.55;20.40;;;;;;;5.80;65.25;98524.25;5092721;28;20428;-47
2024/01/14 10:37:12;;;;;;;30.70;19.80;;;;;;;6.28;65.44;98520.63;5094976;28;20039;-48
2024/01/14 10:39:40;;;;;;;32.90;20.88;;;;;;;6.72;64.49;98510.28;5094900;28;20016;-48
2024/01/14 10:42:06;;;;;;;30.08;20.15;;;;;;;6.95;62.87;98504.16;5093570;28;20024;-50
2024/01/14 10:44:32;;;;;;;30.42;19.58;;;;;;;7.36;62.78;98506.25;5076697;28;20519;-50
2024/01/14 10:47:02;;;;;;;33.88;21.35;;;;;;;7.67;61.61;98516.44;5094814;28;20020;-48
2024/01/14 10:49:28;;;;;;;28.58;18.92;;;;;;;7.89;60.32;98504.19;5094750;28;20028;-48
2024/01/14 10:52:07;;;;;;;27.95;18.25;;;;;;;8.02;60.55;98502.69;5094675;28;20036;-48
2024/01/14 10:54:48;;;;;;;30.05;19.23;;;;;;;8.18;59.39;98484.09;5094548;28;20212;-48
2024/01/14 10:57:36;;;;;;;32.65;19.38;;;;;;;7.99;57.84;98469.91;5094502;28;20158;-48
2024/01/14 11:00:08;;;;;;;30.75;19.45;;;;;;;7.71;57.04;98469.84;5093148;28;20466;-48
2024/01/14 11:02:36;;;;;;;31.80;19.55;;;;;;;7.39;57.53;98461.50;5094475;28;20482;-48
2024/01/14 11:05:03;;;;;;;30.05;19.52;;;;;;;6.91;57.16;98453.34;5093085;28;20028;-48
2024/01/14 11:07:32;;;;;;;37.33;20.85;;;;;;;6.49;58.78;98453.00;5094296;28;20032;-48
2024/01/14 11:09:59;;;;;;;26.65;18.38;;;;;;;6.33;58.80;98456.56;5093026;28;20020;-48
2024/01/14 11:12:41;;;;;;;24.05;15.27;;;;;;;6.22;58.73;98440.56;5094254;28;20078;-48
2024/01/14 11:15:19;;;;;;;30.23;17.45;;;;;;;6.20;59.06;98440.78;5094200;28;20028;-48
2024/01/14 11:17:53;;;;;;;29.38;17.27;;;;;;;6.13;58.62;98439.84;5093980;28;20055;-48
2024/01/14 11:20:25;;;;;;;29.43;17.53;;;;;;;6.12;59.68;98425.22;5094205;28;20026;-48
2024/01/14 11:22:52;;;;;;;27.67;16.23;;;;;;;6.15;59.14;98424.84;5094373;28;20043;-48